SBIH

Itaituba Airport

Itaituba, Brazil
TAF SBIH 252200Z 2600/2612 00000KT 9999 FEW020 FEW23TCU TN20/2606Z TX28/2612Z BECMG 2602/2604 SCT010 PROB30 2610/2612 5000 BR SCT005 RMK PEN
Issued Valid From Valid To
Apr-25 @ 22:00 UTC
(6 hours ago)
Apr-26 @ 00:00 UTC
(4 hours ago)
Apr-26 @ 12:00 UTC
(in 8 hours)
Expired Click to View Apr-26 @ 00:00 to Apr-26 @ 02:00
TAF SBIH 252200Z 2600/2612 00000KT 9999 FEW020 FEW23TCU TN20/2606Z TX28/2612Z
Visibility Clouds
10,000+ meters
  • Few at 2,000' AGL
Becoming Apr-26 @ 02:00 to Apr-26 @ 12:00
BECMG 2602/2604 SCT010
Visibility Clouds
10,000+ meters
  • Scattered at 1,000' AGL
Probable  (Probability 30%) Apr-26 @ 10:00 to Apr-26 @ 12:00
PROB30 2610/2612 5000 BR SCT005 RMK PEN
Visibility Clouds Conditions
5,005 meters
  • Scattered at 500' AGL
  • Mist
TAF SBIH 252200Z 2600/2612 00000KT 9999 FEW020 FEW23TCU TN20/2606Z TX28/2612Z BECMG 2602/2604 SCT010 PROB30 2610/2612 5000 BR SCT005 RMK PEN
Issued Apr-25 @ 22:00 UTC
(6 hours ago)
Valid From Apr-26 @ 00:00 UTC
(4 hours ago)
Valid To Apr-26 @ 12:00 UTC
(in 8 hours)
Apr-26 @ 00:00 - Apr-26 @ 02:00
Clouds
  • Few at 2,000' AGL
Becoming Apr-26 @ 02:00 - Apr-26 @ 12:00
Clouds
  • Scattered at 1,000' AGL
Probability 30% Probable Apr-26 @ 10:00 - Apr-26 @ 12:00
Clouds
  • Scattered at 500' AGL
Conditions
  • Mist